Palmdale, CA (93550)

9:30 AM PST on February 12, 2016 (GMT -0800)
Acton - Peaceful Valley | | Change Station
CLOSE
Current Station
Personal Weather Station
Location: Palmdale, CA
Elevation: 3930 ft
Nearby Weather Stations

Elev 3930 ft 34.52 °N, 118.16 °W | Updated 24 minutes ago

Clear
Clear
62.8 °F
Feels Like 62.8 °F
N
2.5
Wind Variable Wind from SE
Gusts 4.9 mph

Today
High -- | Low -- °F
--% Chance of Precip.
Yesterday
High -- | Low -- °F
Precip. -- in
Pressure 30.26 in
Visibility 10.0 miles
Clouds Clear
Dew Point 33 °F
Humidity 33%
Rainfall 0.00 in
Snow Depth Not available.
6:41 AM 5:32 PM
Waxing Crescent, 22% visible
METAR KPMD 121653Z AUTO 00000KT 10SM CLR 10/M01 A3027 RMK AO2 SLP247 T01001011
Pressure 30.26 in
Visibility 10.0 miles
Clouds Clear
Dew Point 33 °F
Humidity 33%
Rainfall 0.00 in
Snow Depth Not available.
6:41 AM 5:32 PM
Waxing Crescent, 22% visible
METAR KPMD 121653Z AUTO 00000KT 10SM CLR 10/M01 A3027 RMK AO2 SLP247 T01001011

10-Day Weather Forecast

Almanac

Astronomy

Feb. 12, 2016 Rise Set
Actual Time
Civil Twilight
Nautical Twilight
Astronomical Twilight
Moon
Length of Visible Light
Length of Day
Tomorrow will be .
, % of the Moon is Illuminated

Today's Extremes

State Highs State Lows

Community

WunderPhotos

Upload Photos

1,892,353 photos uploaded!

WunderBlog® & News

Nearby

Air Quality

  Air Quality AQ Index Pollutant
Not available.

Snow Depth

Station Depth Elevation

Earthquake Activity

City Distance Mag. Time & Date
Minimum magnitude displayed is 2.5.

Coastal Water Temperatures

Place Temperature

Stations

Nearby Weather Stations

Station Location Temp. Windchill Dew Point Humidity Wind Precip. Elev Updated Type
                   

Watches & Warnings

There are currently no watches in effect.